Time;durP1;ratioP1;P1;durP2;ratioP2;P2;SDS_P1;SDS_P2;PMS_P1;PMS_P2;Temp;Humidity;BMP_temperature;BMP_pressure;BME280_temperature;BME280_humidity;BME280_pressure;Samples;Min_cycle;Max_cycle;Signal;HPM_P1;HPM_P2
2022/11/10 00:00:27;;;;;;;85.50;36.40;;;12.40;99.90;;;;;;5093880;28;20024;-79
2022/11/10 00:02:52;;;;;;;93.60;38.63;;;12.50;1.00;;;;;;5094212;28;20103;-79
2022/11/10 00:05:18;;;;;;;131.02;42.13;;;12.50;99.90;;;;;;5093678;28;20106;-79
2022/11/10 00:07:44;;;;;;;178.70;43.00;;;12.50;99.90;;;;;;5093773;28;20063;-79
2022/11/10 00:10:10;;;;;;;153.65;43.35;;;12.40;99.90;;;;;;5093966;28;20028;-79
2022/11/10 00:12:36;;;;;;;253.60;45.10;;;12.40;99.90;;;;;;5093361;28;20035;-79
2022/11/10 00:17:45;;;;;;;121.07;39.47;;;12.40;1.00;;;;;;5105316;28;20041;-79
2022/11/10 00:20:12;;;;;;;152.50;42.10;;;12.40;1.00;;;;;;5113788;28;20538;-79
2022/11/10 00:22:39;;;;;;;167.98;41.15;;;12.50;1.00;;;;;;5113855;28;20020;-79
2022/11/10 00:25:05;;;;;;;163.30;41.53;;;12.50;1.00;;;;;;5113814;28;20027;-79
2022/11/10 00:27:33;;;;;;;216.90;42.83;;;12.60;1.00;;;;;;5113427;28;20388;-79
2022/11/10 00:29:58;;;;;;;135.82;40.70;;;12.70;1.00;;;;;;5113678;28;20072;-79
2022/11/10 00:32:24;;;;;;;165.20;41.88;;;12.60;1.00;;;;;;5104962;28;20496;-79
2022/11/10 00:34:50;;;;;;;136.27;40.60;;;12.80;1.00;;;;;;5092839;28;20044;-79
2022/11/10 00:37:15;;;;;;;139.13;39.28;;;12.50;99.90;;;;;;5093195;28;20035;-79
2022/11/10 00:39:41;;;;;;;101.72;37.35;;;12.50;99.90;;;;;;5093021;28;20036;-79
2022/11/10 00:42:07;;;;;;;89.70;37.75;;;12.90;1.00;;;;;;5074538;28;20028;-79
2022/11/10 00:44:32;;;;;;;73.13;36.33;;;12.60;1.00;;;;;;5093369;28;20024;-79
2022/11/10 00:46:58;;;;;;;79.10;39.28;;;12.80;99.90;;;;;;5092805;28;20081;-80
2022/11/10 00:49:25;;;;;;;71.60;41.65;;;12.70;1.00;;;;;;5092849;28;20081;-79
2022/11/10 00:51:51;;;;;;;132.07;46.75;;;12.70;1.00;;;;;;5092641;28;20032;-80
2022/11/10 00:54:16;;;;;;;85.70;48.47;;;13.10;1.00;;;;;;5092624;28;20032;-79
2022/11/10 00:56:42;;;;;;;86.15;42.58;;;12.80;1.00;;;;;;5092862;28;20028;-79
2022/11/10 00:59:07;;;;;;;366.65;52.25;;;12.90;1.00;;;;;;5092619;28;20032;-79
2022/11/10 01:01:33;;;;;;;90.13;41.78;;;12.90;1.00;;;;;;5092816;28;20031;-79
2022/11/10 01:03:59;;;;;;;83.00;41.83;;;12.90;1.00;;;;;;5092649;28;20027;-79
2022/11/10 01:06:25;;;;;;;81.88;43.92;;;12.90;1.00;;;;;;5093010;28;20035;-79
2022/11/10 01:08:50;;;;;;;116.13;46.85;;;12.80;1.00;;;;;;5092733;28;20028;-79
2022/11/10 01:11:22;;;;;;;136.82;48.38;;;13.00;1.00;;;;;;5092334;28;20081;-79
2022/11/10 01:13:52;;;;;;;327.05;54.67;;;12.70;1.00;;;;;;5092543;28;20059;-79
2022/11/10 01:16:27;;;;;;;97.35;43.72;;;13.00;1.00;;;;;;5092460;28;20035;-79
2022/11/10 01:18:56;;;;;;;77.57;43.25;;;12.80;1.00;;;;;;5092855;28;20040;-79
2022/11/10 01:21:23;;;;;;;70.80;40.58;;;12.80;1.00;;;;;;5092374;28;20031;-79
2022/11/10 01:23:49;;;;;;;68.07;41.25;;;12.80;1.00;;;;;;5092324;28;20504;-80
2022/11/10 01:26:15;;;;;;;82.65;41.38;;;12.90;1.00;;;;;;5092214;28;20024;-78
2022/11/10 01:28:41;;;;;;;75.03;40.42;;;12.80;1.00;;;;;;5092294;28;20100;-79
2022/11/10 01:31:09;;;;;;;65.93;35.95;;;12.90;1.00;;;;;;5092248;28;20029;-79
2022/11/10 01:33:35;;;;;;;64.40;34.20;;;12.90;1.00;;;;;;5092159;28;20024;-79
2022/11/10 01:36:01;;;;;;;51.13;31.55;;;13.10;1.00;;;;;;5091922;28;20052;-79
2022/11/10 01:38:29;;;;;;;52.33;33.00;;;12.80;1.00;;;;;;5092462;28;20046;-79
2022/11/10 01:40:56;;;;;;;55.60;30.63;;;12.80;1.00;;;;;;5091854;28;20024;-79
2022/11/10 01:43:22;;;;;;;49.83;29.70;;;12.80;1.00;;;;;;5092137;28;20073;-79
2022/11/10 01:45:55;;;;;;;52.85;31.13;;;13.00;1.00;;;;;;5091972;28;20024;-79
2022/11/10 01:48:38;;;;;;;51.25;28.60;;;12.80;1.00;;;;;;5091991;28;20052;-80
2022/11/10 01:51:22;;;;;;;47.40;29.40;;;12.80;1.00;;;;;;5091991;28;20528;-80
2022/11/10 01:54:03;;;;;;;44.30;26.92;;;12.80;1.00;;;;;;5092138;28;20100;-80
2022/11/10 01:56:34;;;;;;;42.03;26.65;;;12.90;1.00;;;;;;5091959;28;20017;-79
2022/11/10 01:59:05;;;;;;;45.55;27.85;;;12.80;1.00;;;;;;5091736;28;20377;-79
2022/11/10 02:01:30;;;;;;;53.88;31.23;;;12.70;1.00;;;;;;5091730;28;20108;-79
2022/11/10 02:04:00;;;;;;;48.70;29.58;;;12.60;1.00;;;;;;5093859;28;20107;-79
2022/11/10 02:06:30;;;;;;;46.13;29.95;;;12.50;1.00;;;;;;5096058;28;20027;-80
2022/11/10 02:08:58;;;;;;;43.80;28.73;;;12.40;1.00;;;;;;5095536;28;20012;-79
2022/11/10 02:11:24;;;;;;;41.40;25.00;;;12.50;1.00;;;;;;5095922;28;20038;-80
2022/11/10 02:13:50;;;;;;;39.53;24.30;;;12.60;1.00;;;;;;5096234;28;20069;-79
2022/11/10 02:16:16;;;;;;;39.85;25.20;;;12.90;1.00;;;;;;5095797;28;20388;-80
2022/11/10 02:18:42;;;;;;;41.63;25.10;;;12.70;1.00;;;;;;5115739;28;20103;-79
2022/11/10 02:21:08;;;;;;;46.70;27.65;;;12.70;99.90;;;;;;5116363;28;20111;-79
2022/11/10 02:23:36;;;;;;;49.28;27.98;;;13.00;1.00;;;;;;5115616;28;20020;-80
2022/11/10 02:26:05;;;;;;;45.42;27.50;;;12.70;99.90;;;;;;5115999;28;20039;-80
2022/11/10 02:28:35;;;;;;;46.83;28.40;;;12.70;1.00;;;;;;5116228;28;20031;-79
2022/11/10 02:31:02;;;;;;;52.90;29.38;;;12.70;1.00;;;;;;5097950;28;20536;-79
2022/11/10 02:33:27;;;;;;;53.00;28.67;;;12.70;99.90;;;;;;5098237;28;20523;-80
2022/11/10 02:35:53;;;;;;;43.75;27.42;;;12.70;99.90;;;;;;5095259;28;20060;-79
2022/11/10 02:38:18;;;;;;;50.85;29.85;;;12.70;99.90;;;;;;5095067;28;20043;-79
2022/11/10 02:40:44;;;;;;;54.38;31.25;;;13.00;99.90;;;;;;5095530;28;20519;-79
2022/11/10 02:43:13;;;;;;;57.40;30.55;;;12.80;99.90;;;;;;5095357;28;20050;-79
2022/11/10 02:45:42;;;;;;;54.22;30.00;;;12.80;99.90;;;;;;5095008;28;20036;-79
2022/11/10 02:48:09;;;;;;;57.90;30.65;;;12.80;1.00;;;;;;5095331;28;20040;-79
2022/11/10 02:50:34;;;;;;;56.15;29.42;;;12.90;99.90;;;;;;5095347;28;20012;-79
2022/11/10 02:53:00;;;;;;;54.47;28.45;;;12.80;1.00;;;;;;5094954;28;20032;-79
2022/11/10 02:55:26;;;;;;;52.42;28.60;;;13.20;1.00;;;;;;5095201;28;20042;-79
2022/11/10 02:57:51;;;;;;;54.03;29.10;;;12.70;99.90;;;;;;5094996;28;20032;-79
2022/11/10 03:00:17;;;;;;;46.10;27.25;;;12.90;99.90;;;;;;5095701;28;20024;-80
2022/11/10 03:02:43;;;;;;;48.83;26.20;;;12.50;99.90;;;;;;5094962;28;20020;-79
2022/11/10 03:05:09;;;;;;;46.40;26.35;;;12.60;1.00;;;;;;5095041;28;20544;-79
2022/11/10 03:07:34;;;;;;;41.90;25.38;;;12.50;99.90;;;;;;5094618;28;20048;-79
2022/11/10 03:10:00;;;;;;;44.00;25.05;;;12.60;99.90;;;;;;5094958;28;20024;-79
2022/11/10 03:12:26;;;;;;;43.85;24.83;;;12.50;99.90;;;;;;5094833;28;20024;-79
2022/11/10 03:14:52;;;;;;;34.22;21.60;;;12.40;1.00;;;;;;5094332;28;20035;-79
2022/11/10 03:17:17;;;;;;;33.80;20.58;;;12.40;99.90;;;;;;5102150;28;20039;-78
2022/11/10 03:19:43;;;;;;;31.70;20.27;;;12.40;99.90;;;;;;5115339;28;20156;-80
2022/11/10 03:22:08;;;;;;;31.90;18.67;;;12.30;99.90;;;;;;5114732;28;20019;-79
2022/11/10 03:24:34;;;;;;;29.65;18.45;;;12.30;99.90;;;;;;5114786;28;20076;-79
2022/11/10 03:27:00;;;;;;;29.15;17.80;;;12.30;99.90;;;;;;5114820;28;20027;-79
2022/11/10 03:29:25;;;;;;;25.13;16.38;;;12.50;1.00;;;;;;5114967;28;20510;-79
2022/11/10 03:31:51;;;;;;;22.77;15.27;;;12.30;99.90;;;;;;5092556;28;20023;-80
2022/11/10 03:34:17;;;;;;;20.85;13.70;;;12.30;99.90;;;;;;5094358;28;20032;-80
2022/11/10 03:36:43;;;;;;;21.45;13.15;;;12.40;1.00;;;;;;5093811;28;20047;-80
2022/11/10 03:39:08;;;;;;;19.42;13.30;;;12.30;99.90;;;;;;5094391;28;20036;-79
2022/11/10 03:41:34;;;;;;;19.50;11.95;;;12.30;99.90;;;;;;5094480;28;20027;-79
2022/11/10 03:44:00;;;;;;;18.40;11.48;;;12.30;99.90;;;;;;5094308;28;20031;-79
2022/11/10 03:46:25;;;;;;;18.60;11.93;;;12.40;99.90;;;;;;5094047;28;20028;-79
2022/11/10 03:48:51;;;;;;;15.18;11.00;;;12.50;99.90;;;;;;5094396;28;20063;-79
2022/11/10 03:51:16;;;;;;;16.95;10.77;;;12.80;99.90;;;;;;5094190;28;20021;-79
2022/11/10 03:53:42;;;;;;;15.68;11.38;;;12.50;99.90;;;;;;5093968;28;20429;-79
2022/11/10 03:56:08;;;;;;;16.63;10.52;;;12.60;99.90;;;;;;5094354;28;20396;-79
2022/11/10 03:58:33;;;;;;;15.60;10.73;;;12.40;99.90;;;;;;5093946;28;20039;-79
2022/11/10 04:00:59;;;;;;;17.52;11.82;;;12.40;99.90;;;;;;5093966;28;20035;-79
2022/11/10 04:03:25;;;;;;;16.27;10.90;;;12.50;99.90;;;;;;5094034;28;20020;-79
2022/11/10 04:16:48;;;;;;;19.25;11.57;;;12.50;99.90;;;;;;5097479;28;20076;-79
2022/11/10 04:19:14;;;;;;;18.13;11.65;;;12.40;99.90;;;;;;5113385;28;20047;-78
2022/11/10 04:21:40;;;;;;;17.70;11.25;;;12.40;99.90;;;;;;5113978;28;20094;-79
2022/11/10 04:24:06;;;;;;;15.40;10.43;;;12.60;99.90;;;;;;5113712;28;20106;-79
2022/11/10 04:26:32;;;;;;;17.30;10.82;;;12.50;99.90;;;;;;5113003;28;20026;-79
2022/11/10 04:29:04;;;;;;;14.20;9.88;;;12.50;99.90;;;;;;5113204;28;20024;-79
2022/11/10 04:31:31;;;;;;;13.90;10.18;;;12.80;99.90;;;;;;5112868;28;20077;-78
2022/11/10 04:33:58;;;;;;;17.33;10.02;;;12.60;99.90;;;;;;5092898;28;20028;-79
2022/11/10 04:36:26;;;;;;;16.27;10.63;;;12.50;99.90;;;;;;5092924;28;20051;-79
2022/11/10 04:38:51;;;;;;;13.90;10.20;;;12.50;99.90;;;;;;5074892;28;20419;-79
2022/11/10 04:41:17;;;;;;;16.08;10.05;;;12.40;99.90;;;;;;5093514;28;20032;-79
2022/11/10 04:43:43;;;;;;;14.18;9.95;;;12.60;99.90;;;;;;5092983;28;20024;-79
2022/11/10 04:46:23;;;;;;;14.60;10.27;;;12.50;99.90;;;;;;5093381;28;20396;-80
2022/11/10 04:48:49;;;;;;;14.50;10.23;;;12.50;99.90;;;;;;5093114;28;20024;-80
2022/11/10 04:51:16;;;;;;;13.43;9.98;;;12.50;99.90;;;;;;5092957;28;20082;-79
2022/11/10 04:53:42;;;;;;;17.17;10.13;;;12.90;99.90;;;;;;5092668;28;20024;-79
2022/11/10 04:56:14;;;;;;;15.35;10.05;;;12.80;99.90;;;;;;5093241;28;20089;-79
2022/11/10 04:58:40;;;;;;;15.95;9.57;;;12.40;99.90;;;;;;5092586;28;20036;-79
2022/11/10 05:01:06;;;;;;;17.45;9.32;;;12.40;99.90;;;;;;5092424;28;20035;-80
2022/11/10 05:03:32;;;;;;;15.10;8.73;;;12.50;99.90;;;;;;5092863;28;20031;-80
2022/11/10 05:05:57;;;;;;;12.98;8.50;;;12.50;99.90;;;;;;5093155;28;20412;-80
2022/11/10 05:08:23;;;;;;;14.00;8.80;;;12.40;99.90;;;;;;5092512;28;20132;-79
2022/11/10 05:10:48;;;;;;;15.95;8.70;;;12.40;99.90;;;;;;5092635;28;20024;-80
2022/11/10 05:13:14;;;;;;;14.10;9.63;;;12.50;99.90;;;;;;5092931;28;20024;-79
2022/11/10 05:15:41;;;;;;;13.57;8.90;;;12.50;99.90;;;;;;5092399;28;20077;-80
2022/11/10 05:18:07;;;;;;;18.52;9.23;;;12.50;99.90;;;;;;5091810;28;20028;-80
2022/11/10 05:20:32;;;;;;;16.33;9.63;;;12.40;99.90;;;;;;5092428;28;20055;-80
2022/11/10 05:25:43;;;;;;;15.20;9.45;;;12.40;99.90;;;;;;5092564;28;20449;-82
2022/11/10 05:28:10;;;;;;;16.67;9.70;;;12.30;99.90;;;;;;5092624;28;20027;-81
2022/11/10 05:30:37;;;;;;;14.80;9.07;;;12.50;99.90;;;;;;5092271;28;20024;-81
2022/11/10 05:33:03;;;;;;;14.05;9.80;;;12.40;99.90;;;;;;5091709;28;20051;-81
2022/11/10 05:35:28;;;;;;;13.82;10.23;;;12.70;99.90;;;;;;5074681;28;20052;-81
2022/11/10 05:37:54;;;;;;;13.15;9.40;;;12.50;99.90;;;;;;5092165;28;20039;-82
2022/11/10 05:40:20;;;;;;;15.35;9.50;;;12.50;99.90;;;;;;5092078;28;20043;-81
2022/11/10 05:42:47;;;;;;;13.88;10.23;;;12.60;99.90;;;;;;5092142;28;20384;-81
2022/11/10 05:45:14;;;;;;;16.80;10.07;;;12.60;99.90;;;;;;5092126;28;20036;-81
2022/11/10 05:47:40;;;;;;;19.98;10.48;;;12.30;99.90;;;;;;5092162;28;20487;-81
2022/11/10 05:50:07;;;;;;;16.75;10.98;;;12.60;99.90;;;;;;5092140;28;20368;-81
2022/11/10 05:52:33;;;;;;;15.27;10.52;;;12.30;99.90;;;;;;5091776;28;20042;-81
2022/11/10 05:54:59;;;;;;;16.67;10.95;;;12.30;99.90;;;;;;5092286;28;20032;-81
2022/11/10 05:57:25;;;;;;;16.95;11.32;;;12.30;99.90;;;;;;5092325;28;20032;-80
2022/11/10 05:59:50;;;;;;;17.52;11.00;;;12.30;99.90;;;;;;5091876;28;20032;-81
2022/11/10 06:02:16;;;;;;;21.30;11.05;;;12.30;99.90;;;;;;5091825;28;20038;-81
2022/11/10 06:04:42;;;;;;;15.15;10.80;;;12.50;99.90;;;;;;5091871;28;20059;-81
2022/11/10 06:07:07;;;;;;;18.02;11.30;;;12.20;99.90;;;;;;5091902;28;20059;-81
2022/11/10 06:09:34;;;;;;;21.02;12.20;;;12.20;99.90;;;;;;5092164;28;20116;-81
2022/11/10 06:12:00;;;;;;;16.48;12.13;;;12.20;99.90;;;;;;5092217;28;20020;-81
2022/11/10 06:14:26;;;;;;;18.10;12.65;;;12.20;99.90;;;;;;5091843;28;20212;-81
2022/11/10 06:16:51;;;;;;;18.20;12.60;;;12.40;99.90;;;;;;5091432;28;20013;-81
2022/11/10 06:19:17;;;;;;;19.90;13.65;;;12.10;99.90;;;;;;5092218;28;20071;-80
2022/11/10 06:21:42;;;;;;;21.08;14.07;;;12.20;99.90;;;;;;5091707;28;20476;-81
2022/11/10 06:24:09;;;;;;;18.20;13.00;;;12.20;99.90;;;;;;5091689;28;20085;-81
2022/11/10 06:26:35;;;;;;;17.58;13.80;;;12.10;99.90;;;;;;5091697;28;20369;-81
2022/11/10 06:29:01;;;;;;;20.33;13.82;;;12.20;99.90;;;;;;5091965;28;20025;-80
2022/11/10 06:31:27;;;;;;;22.65;14.45;;;12.20;99.90;;;;;;5091870;28;20115;-81
2022/11/10 06:33:53;;;;;;;20.17;13.85;;;12.10;99.90;;;;;;5091847;28;20020;-80
2022/11/10 06:36:18;;;;;;;23.92;13.68;;;12.40;99.90;;;;;;5091299;28;20534;-81
2022/11/10 06:38:44;;;;;;;20.02;13.90;;;12.10;99.90;;;;;;5091673;28;20036;-81
2022/11/10 06:41:09;;;;;;;21.60;14.30;;;12.40;99.90;;;;;;5091746;28;20482;-81
2022/11/10 06:43:35;;;;;;;25.23;14.65;;;12.10;99.90;;;;;;5091699;28;20077;-81
2022/11/10 06:46:01;;;;;;;20.63;12.77;;;12.20;99.90;;;;;;5091415;28;20024;-80
2022/11/10 06:48:26;;;;;;;21.27;14.30;;;12.40;99.90;;;;;;5091267;28;20062;-82
2022/11/10 06:50:52;;;;;;;21.58;14.02;;;12.10;99.90;;;;;;5093029;28;20062;-83
2022/11/10 06:53:17;;;;;;;21.55;13.63;;;12.20;99.90;;;;;;5095351;28;20028;-82
2022/11/10 06:55:43;;;;;;;21.08;13.95;;;12.30;99.90;;;;;;5095851;28;20110;-81
2022/11/10 06:58:09;;;;;;;18.52;14.18;;;12.40;99.90;;;;;;5095481;28;20028;-82
2022/11/10 07:00:35;;;;;;;19.95;14.35;;;12.50;99.90;;;;;;5095677;28;20042;-82
2022/11/10 07:03:06;;;;;;;20.23;14.98;;;12.50;99.90;;;;;;5095379;28;20052;-82
2022/11/10 07:05:35;;;;;;;24.20;14.13;;;12.40;99.90;;;;;;5095903;28;20110;-81
2022/11/10 07:08:06;;;;;;;23.08;14.50;;;12.50;99.90;;;;;;5095571;28;20066;-82
2022/11/10 07:10:32;;;;;;;18.85;14.20;;;12.30;99.90;;;;;;5077024;28;20366;-82
2022/11/10 07:12:59;;;;;;;23.05;13.88;;;12.20;99.90;;;;;;5094741;28;20062;-82
2022/11/10 07:15:26;;;;;;;22.45;14.25;;;12.20;99.90;;;;;;5094999;28;20032;-82
2022/11/10 07:17:51;;;;;;;21.98;14.55;;;12.30;99.90;;;;;;5094489;28;20407;-83
2022/11/10 07:20:17;;;;;;;18.15;12.60;;;12.30;99.90;;;;;;5094622;28;20119;-82
2022/11/10 07:22:43;;;;;;;18.45;13.52;;;12.40;99.90;;;;;;5094652;28;20499;-82
2022/11/10 07:25:09;;;;;;;18.42;13.07;;;12.60;99.90;;;;;;5094835;28;20060;-81
2022/11/10 07:27:34;;;;;;;17.77;13.45;;;12.40;99.90;;;;;;5094208;28;20369;-81
2022/11/10 07:30:00;;;;;;;19.52;13.10;;;12.60;99.90;;;;;;5094675;28;20028;-81
2022/11/10 07:32:25;;;;;;;16.35;12.27;;;12.80;99.90;;;;;;5094237;28;20032;-81
2022/11/10 07:34:51;;;;;;;16.92;12.48;;;12.50;99.90;;;;;;5094424;28;20139;-81
2022/11/10 07:37:17;;;;;;;17.10;12.30;;;12.50;99.90;;;;;;5094212;28;20055;-81
2022/11/10 07:39:42;;;;;;;16.88;12.77;;;12.50;99.90;;;;;;5094244;28;20036;-81
2022/11/10 07:42:08;;;;;;;17.20;12.63;;;12.50;99.90;;;;;;5075953;28;20016;-82
2022/11/10 07:44:33;;;;;;;19.75;12.85;;;12.70;99.90;;;;;;5094244;28;20115;-81
2022/11/10 07:46:59;;;;;;;19.17;13.15;;;12.50;99.90;;;;;;5094242;28;20154;-81
2022/11/10 07:49:25;;;;;;;17.58;13.48;;;12.60;99.90;;;;;;5094399;28;20499;-81
2022/11/10 07:51:50;;;;;;;17.20;12.57;;;12.40;99.90;;;;;;5094073;28;20103;-81
2022/11/10 07:54:16;;;;;;;17.70;12.48;;;12.40;99.90;;;;;;5094161;28;20102;-81
2022/11/10 07:56:42;;;;;;;20.23;13.10;;;12.50;99.90;;;;;;5094278;28;20480;-81
2022/11/10 07:59:08;;;;;;;15.02;11.40;;;12.50;99.90;;;;;;5093812;28;20046;-81
2022/11/10 08:01:34;;;;;;;16.75;12.55;;;12.50;99.90;;;;;;5093663;28;20107;-81
2022/11/10 08:03:59;;;;;;;14.23;11.95;;;12.70;99.90;;;;;;5094034;28;20108;-81
2022/11/10 08:06:25;;;;;;;17.67;11.88;;;12.40;99.90;;;;;;5093711;28;20032;-81
2022/11/10 08:08:50;;;;;;;16.48;11.02;;;12.40;99.90;;;;;;5093671;28;20429;-81
2022/11/10 08:11:16;;;;;;;13.93;10.43;;;12.40;99.90;;;;;;5093466;28;20099;-81
2022/11/10 08:13:42;;;;;;;16.05;12.07;;;12.30;99.90;;;;;;5093894;28;20369;-82
2022/11/10 08:16:07;;;;;;;15.20;11.15;;;12.40;99.90;;;;;;5075410;28;20027;-81
2022/11/10 08:18:33;;;;;;;17.67;11.40;;;12.40;99.90;;;;;;5093176;28;20040;-82
2022/11/10 08:21:00;;;;;;;13.50;10.70;;;12.50;99.90;;;;;;5093843;28;20031;-81
2022/11/10 08:23:27;;;;;;;16.63;11.82;;;12.60;99.90;;;;;;5093318;28;20476;-81
2022/11/10 08:25:56;;;;;;;14.52;11.63;;;12.50;99.90;;;;;;5092956;28;20039;-82
2022/11/10 08:28:21;;;;;;;15.35;10.60;;;12.50;99.90;;;;;;5093223;28;20070;-81
2022/11/10 08:30:48;;;;;;;13.10;9.75;;;12.70;99.90;;;;;;5093536;28;20055;-82
2022/11/10 08:33:16;;;;;;;13.52;10.02;;;12.90;99.90;;;;;;5093291;28;20028;-82
2022/11/10 08:35:43;;;;;;;13.45;9.63;;;12.80;99.90;;;;;;5092802;28;20075;-81
2022/11/10 08:38:18;;;;;;;11.63;9.23;;;12.60;99.90;;;;;;5093185;28;20020;-82
2022/11/10 08:40:44;;;;;;;10.02;8.60;;;12.70;99.90;;;;;;5092852;28;20594;-81
2022/11/10 08:43:11;;;;;;;12.35;9.30;;;13.10;99.90;;;;;;5093549;28;20028;-82
2022/11/10 08:45:39;;;;;;;15.95;9.25;;;12.80;99.90;;;;;;5092799;28;20080;-81
2022/11/10 08:48:09;;;;;;;11.88;9.85;;;12.60;99.90;;;;;;5092863;28;20499;-81
2022/11/10 08:50:34;;;;;;;13.35;9.75;;;12.70;99.90;;;;;;5093361;28;20035;-82
2022/11/10 08:53:01;;;;;;;10.10;8.50;;;12.70;99.90;;;;;;5092933;28;20376;-81
2022/11/10 08:55:27;;;;;;;11.40;8.75;;;12.80;99.90;;;;;;5092500;28;20032;-82
2022/11/10 08:58:01;;;;;;;12.60;8.75;;;12.80;99.90;;;;;;5093235;28;20024;-82
2022/11/10 09:00:29;;;;;;;12.55;8.55;;;12.80;99.90;;;;;;5092508;28;20109;-82
2022/11/10 09:03:01;;;;;;;14.90;7.93;;;12.90;99.90;;;;;;5092818;28;20020;-82
2022/11/10 09:05:27;;;;;;;11.88;8.07;;;13.00;99.90;;;;;;5092789;28;20024;-82
2022/11/10 09:07:52;;;;;;;11.95;8.57;;;12.80;99.90;;;;;;5092915;28;20024;-82
2022/11/10 09:10:18;;;;;;;12.98;8.50;;;12.70;99.90;;;;;;5092336;28;20054;-81
2022/11/10 09:12:44;;;;;;;10.52;8.20;;;12.90;99.90;;;;;;5092336;28;20028;-81
2022/11/10 09:15:10;;;;;;;13.18;9.10;;;12.70;99.90;;;;;;5091983;28;20020;-81
2022/11/10 09:17:38;;;;;;;14.10;9.25;;;13.20;99.90;;;;;;5092309;28;20058;-81
2022/11/10 09:20:05;;;;;;;11.60;8.07;;;12.70;99.90;;;;;;5092497;28;20118;-82
2022/11/10 09:22:31;;;;;;;15.20;9.40;;;12.60;99.90;;;;;;5092823;28;20483;-82
2022/11/10 09:24:56;;;;;;;14.00;9.85;;;12.70;99.90;;;;;;5091996;28;20051;-82
2022/11/10 09:27:22;;;;;;;13.10;10.20;;;12.70;99.90;;;;;;5092722;28;20119;-82
2022/11/10 09:29:47;;;;;;;15.63;9.60;;;13.10;99.90;;;;;;5092210;28;20039;-82
2022/11/10 09:32:13;;;;;;;14.05;10.18;;;12.80;99.90;;;;;;5092681;28;20020;-81
2022/11/10 09:34:39;;;;;;;11.93;9.63;;;12.80;99.90;;;;;;5092038;28;20032;-81
2022/11/10 09:37:04;;;;;;;12.68;10.30;;;12.80;99.90;;;;;;5091870;28;20099;-81
2022/11/10 09:39:30;;;;;;;13.27;9.68;;;13.10;99.90;;;;;;5092284;28;20053;-82
2022/11/10 09:41:55;;;;;;;13.18;10.18;;;12.80;99.90;;;;;;5092238;28;20484;-81
2022/11/10 09:44:28;;;;;;;15.00;9.90;;;12.80;99.90;;;;;;5092084;28;20103;-81
2022/11/10 09:46:57;;;;;;;15.07;10.20;;;12.60;99.90;;;;;;5092171;28;20531;-82
2022/11/10 09:49:33;;;;;;;13.45;10.02;;;12.50;99.90;;;;;;5092140;28;20028;-82
2022/11/10 09:52:00;;;;;;;11.93;9.60;;;12.60;99.90;;;;;;5092123;28;20020;-81
2022/11/10 09:54:41;;;;;;;13.80;9.57;;;12.80;99.90;;;;;;5091580;28;20032;-81
2022/11/10 09:57:12;;;;;;;14.63;9.75;;;12.60;99.90;;;;;;5092320;28;20043;-81
2022/11/10 09:59:38;;;;;;;11.45;8.85;;;12.60;99.90;;;;;;5091948;28;20036;-82
2022/11/10 10:02:15;;;;;;;12.40;8.80;;;12.90;99.90;;;;;;5092309;28;20077;-82
2022/11/10 10:05:11;;;;;;;10.77;8.80;;;12.70;99.90;;;;;;5092271;28;20108;-81
2022/11/10 10:08:26;;;;;;;10.57;8.55;;;12.50;99.90;;;;;;5092034;28;20038;-81
2022/11/10 10:11:07;;;;;;;13.40;8.55;;;12.40;99.90;;;;;;5010242;28;20029;-81
2022/11/10 10:13:41;;;;;;;12.45;9.65;;;12.80;99.90;;;;;;5010047;28;20541;-81
2022/11/10 10:16:12;;;;;;;11.80;9.65;;;12.60;99.90;;;;;;5009876;28;20497;-82
2022/11/10 10:18:38;;;;;;;10.43;9.02;;;12.50;99.90;;;;;;5009592;28;20038;-82
2022/11/10 10:21:41;;;;;;;12.48;9.38;;;12.50;99.90;;;;;;5010214;28;20073;-80
2022/11/10 10:24:15;;;;;;;10.85;9.10;;;12.50;99.90;;;;;;5009724;28;20065;-81
2022/11/10 10:26:49;;;;;;;14.48;9.27;;;12.60;99.90;;;;;;5013568;28;20040;-82
2022/11/10 10:29:38;;;;;;;13.77;8.52;;;12.50;99.90;;;;;;5013431;28;20042;-82
2022/11/10 10:32:10;;;;;;;12.10;9.05;;;12.40;99.90;;;;;;5013365;28;20068;-82
2022/11/10 10:34:35;;;;;;;12.45;10.00;;;12.70;99.90;;;;;;5013207;28;20527;-81
2022/11/10 10:37:01;;;;;;;11.68;8.98;;;12.60;99.90;;;;;;5013335;28;20045;-82
2022/11/10 10:39:40;;;;;;;12.07;8.93;;;12.70;99.90;;;;;;5013368;28;20526;-82
2022/11/10 10:42:18;;;;;;;12.85;9.60;;;12.50;99.90;;;;;;5056585;28;20032;-82
2022/11/10 10:45:10;;;;;;;11.82;10.00;;;12.40;99.90;;;;;;5075554;28;20021;-82
2022/11/10 10:47:37;;;;;;;14.57;10.45;;;12.40;99.90;;;;;;5013021;28;20057;-82
2022/11/10 10:50:15;;;;;;;14.68;10.00;;;12.60;99.90;;;;;;5013018;28;20073;-82
2022/11/10 10:52:41;;;;;;;12.43;10.30;;;12.20;99.90;;;;;;5013397;28;20045;-82
2022/11/10 10:55:07;;;;;;;14.18;9.27;;;12.30;99.90;;;;;;5013091;28;20056;-81
2022/11/10 10:57:33;;;;;;;12.18;8.73;;;12.50;99.90;;;;;;5013333;28;20049;-80
2022/11/10 11:00:16;;;;;;;12.50;8.70;;;12.60;99.90;;;;;;5012766;28;20364;-82
2022/11/10 11:02:42;;;;;;;9.95;8.15;;;12.60;99.90;;;;;;5013460;28;20540;-81
2022/11/10 11:05:12;;;;;;;11.27;8.50;;;12.60;99.90;;;;;;5012478;28;20068;-82
2022/11/10 11:07:38;;;;;;;12.15;8.98;;;12.60;99.90;;;;;;5012734;28;20026;-81
2022/11/10 11:10:29;;;;;;;10.85;8.70;;;12.50;99.90;;;;;;5013112;28;20033;-82
2022/11/10 11:13:29;;;;;;;10.65;8.63;;;12.60;99.90;;;;;;5012709;28;20485;-81
2022/11/10 11:16:06;;;;;;;9.13;7.72;;;12.60;99.90;;;;;;5012559;28;20176;-82
2022/11/10 11:18:33;;;;;;;11.45;8.07;;;12.60;99.90;;;;;;5030110;28;20042;-81
2022/11/10 11:21:32;;;;;;;10.85;8.35;;;12.60;99.90;;;;;;5032051;28;20034;-81
2022/11/10 11:24:27;;;;;;;10.93;8.30;;;12.60;99.90;;;;;;5045798;28;20071;-82
2022/11/10 11:27:09;;;;;;;13.38;10.32;;;12.90;99.90;;;;;;5074186;28;20099;-82
2022/11/10 11:30:01;;;;;;;14.25;11.48;;;12.70;99.90;;;;;;5074396;28;20033;-82
2022/11/10 11:32:50;;;;;;;10.63;7.50;;;12.90;99.90;;;;;;5082806;28;20459;-82
2022/11/10 11:35:46;;;;;;;11.30;7.88;;;13.00;99.90;;;;;;5094275;28;20040;-82
2022/11/10 11:38:25;;;;;;;9.32;7.53;;;13.20;99.90;;;;;;5093899;28;20012;-82
2022/11/10 11:41:00;;;;;;;10.45;7.65;;;13.20;99.90;;;;;;5094322;28;20032;-82
2022/11/10 11:43:44;;;;;;;12.35;7.63;;;13.20;99.90;;;;;;5094374;28;20424;-81
2022/11/10 11:46:28;;;;;;;10.45;8.55;;;13.20;99.90;;;;;;5094133;28;20028;-81
2022/11/10 11:49:30;;;;;;;12.18;8.50;;;13.20;99.90;;;;;;5093692;28;20430;-82
2022/11/10 11:52:17;;;;;;;11.23;8.35;;;13.20;99.90;;;;;;5093937;28;20024;-82
2022/11/10 11:55:17;;;;;;;11.93;8.90;;;13.20;99.90;;;;;;5093828;28;20093;-82
2022/11/10 11:58:04;;;;;;;9.40;7.60;;;13.20;99.90;;;;;;5094037;28;20035;-81
2022/11/10 12:00:44;;;;;;;10.38;7.53;;;13.30;99.90;;;;;;5093835;28;20039;-81
2022/11/10 12:03:46;;;;;;;9.95;7.38;;;13.20;99.90;;;;;;5093360;28;20408;-82
2022/11/10 12:06:47;;;;;;;9.05;6.97;;;13.20;99.90;;;;;;5093675;28;20028;-82
2022/11/10 12:09:24;;;;;;;7.93;6.13;;;13.10;99.90;;;;;;5011403;28;20057;-81
2022/11/10 12:12:06;;;;;;;9.07;7.55;;;13.00;99.90;;;;;;5011406;28;20096;-81
2022/11/10 12:15:10;;;;;;;8.98;7.20;;;13.20;99.90;;;;;;5011634;28;20040;-82
2022/11/10 12:17:48;;;;;;;7.55;6.57;;;13.20;99.90;;;;;;4952869;29;20110;-82
2022/11/10 12:20:40;;;;;;;8.00;6.05;;;13.10;99.90;;;;;;4953142;29;20046;-81
2022/11/10 12:23:17;;;;;;;6.72;5.90;;;12.90;99.90;;;;;;4952935;28;20046;-82
2022/11/10 12:25:59;;;;;;;9.50;6.50;;;13.00;99.90;;;;;;4952823;29;20035;-81
2022/11/10 12:28:35;;;;;;;7.93;5.78;;;13.00;99.90;;;;;;4952927;29;20051;-82
2022/11/10 12:31:05;;;;;;;10.20;5.63;;;13.40;99.90;;;;;;4953366;29;20094;-82
2022/11/10 12:33:50;;;;;;;5.68;4.78;;;13.30;99.90;;;;;;4969157;28;20027;-82
2022/11/10 12:36:19;;;;;;;6.85;5.13;;;13.20;99.90;;;;;;4971849;28;20497;-82
2022/11/10 12:39:17;;;;;;;8.20;4.50;;;13.30;99.90;;;;;;4971811;28;20431;-82
2022/11/10 12:41:54;;;;;;;7.50;4.88;;;13.20;99.90;;;;;;4971904;28;20047;-81
2022/11/10 12:44:53;;;;;;;6.53;5.25;;;13.10;99.90;;;;;;4985070;28;20022;-83
2022/11/10 12:47:20;;;;;;;6.20;4.95;;;13.10;99.90;;;;;;5010427;28;20104;-81
2022/11/10 12:50:14;;;;;;;9.18;5.13;;;13.20;99.90;;;;;;5010406;28;20571;-82
2022/11/10 12:52:58;;;;;;;5.75;5.10;;;13.30;99.90;;;;;;5007383;28;20077;-82
2022/11/10 12:55:43;;;;;;;8.88;5.40;;;13.30;99.90;;;;;;5067803;28;20047;-81
2022/11/10 12:58:11;;;;;;;7.47;5.50;;;13.30;99.90;;;;;;5078650;28;20020;-83
2022/11/10 13:00:42;;;;;;;5.30;4.65;;;13.40;99.90;;;;;;5082494;28;20126;-82
2022/11/10 13:03:33;;;;;;;8.00;4.78;;;13.40;99.90;;;;;;5081848;28;20020;-83